Xihua, China
Current Conditions -  °F | °C
As of 10:00 AM on Sunday 26 Oct 2014 (Local Time) from ZHCC Reporting Station
Haze Haze  
Wind Chill: 70°   Ceiling: Unl
Heat Index: 70°   Visibility: 1.8mi
Dew Point: 54°   Wind: 13mph
Humidity: 56%   Direction: 360°N
Pressure: 30.09"   Gusts: NA
Location:  33.79°N, 114.52°E
Report Text: ZHCC 260200Z 36006MPS 340V040 3000 HZ NSC 21/12 Q1019 NOSIG
Loading
Personal Weather Stations






























Interactive Weather Map
Tropical Storm Tracking
New forecast layout! Learn more

10-Day Weather Forecast

Advertisements
Track Severe Weather on mobile